Skookumchuck, Canada
Current Conditions -  °F | °C
As of 5:00 PM on Wednesday 17 Dec 2014 (Local Time) from CYXC Reporting Station
Broken Clouds Broken Clouds  
Wind Chill: 27°   Ceiling: 5700
Heat Index: 27°   Visibility: 25mi
Dew Point: 19°   Wind: 0mph
Humidity: 74%   Direction: NA
Pressure: 29.96"   Gusts: NA
Location:  49.9°N, 115.77°W
Report Text: CYXC 180000Z 00000KT 25SM FEW010 SCT024 BKN057 M03/M07 A2996 RMK SF1SC3SC4 SF TR SLP186
Loading
Personal Weather Stations






























Interactive Weather Map New forecast layout! Learn more

10-Day Weather Forecast

Advertisements
Track Severe Weather on mobile